sensor_id;sensor_type;location;lat;lon;timestamp;P1;durP1;ratioP1;P2;durP2;ratioP2
70301;SDS011;57706;56.326;43.882;2023-09-18T00:01:58;7.30;;;4.40;;
70301;SDS011;57706;56.326;43.882;2023-09-18T00:04:23;7.28;;;4.57;;
70301;SDS011;57706;56.326;43.882;2023-09-18T00:06:49;7.88;;;4.05;;
70301;SDS011;57706;56.326;43.882;2023-09-18T00:09:15;8.27;;;4.88;;
70301;SDS011;57706;56.326;43.882;2023-09-18T00:11:41;6.88;;;4.53;;
70301;SDS011;57706;56.326;43.882;2023-09-18T00:14:07;6.47;;;4.28;;
70301;SDS011;57706;56.326;43.882;2023-09-18T00:16:35;13.27;;;4.85;;
70301;SDS011;57706;56.326;43.882;2023-09-18T00:19:01;6.85;;;4.60;;
70301;SDS011;57706;56.326;43.882;2023-09-18T00:21:28;14.80;;;5.00;;
70301;SDS011;57706;56.326;43.882;2023-09-18T00:23:56;7.65;;;5.00;;
70301;SDS011;57706;56.326;43.882;2023-09-18T00:26:24;6.63;;;4.22;;
70301;SDS011;57706;56.326;43.882;2023-09-18T00:28:52;8.85;;;5.22;;
70301;SDS011;57706;56.326;43.882;2023-09-18T00:31:18;7.93;;;4.47;;
70301;SDS011;57706;56.326;43.882;2023-09-18T00:33:45;10.52;;;4.82;;
70301;SDS011;57706;56.326;43.882;2023-09-18T00:36:11;8.82;;;4.20;;
70301;SDS011;57706;56.326;43.882;2023-09-18T00:38:36;8.45;;;4.13;;
70301;SDS011;57706;56.326;43.882;2023-09-18T00:41:02;9.18;;;5.00;;
70301;SDS011;57706;56.326;43.882;2023-09-18T00:43:28;7.45;;;4.47;;
70301;SDS011;57706;56.326;43.882;2023-09-18T00:45:54;14.18;;;4.72;;
70301;SDS011;57706;56.326;43.882;2023-09-18T00:48:20;13.55;;;4.88;;
70301;SDS011;57706;56.326;43.882;2023-09-18T00:50:47;13.05;;;5.22;;
70301;SDS011;57706;56.326;43.882;2023-09-18T00:53:24;10.15;;;5.38;;
70301;SDS011;57706;56.326;43.882;2023-09-18T00:55:53;17.20;;;6.18;;
70301;SDS011;57706;56.326;43.882;2023-09-18T00:58:22;11.00;;;5.30;;
70301;SDS011;57706;56.326;43.882;2023-09-18T01:00:48;15.75;;;5.75;;
70301;SDS011;57706;56.326;43.882;2023-09-18T01:03:16;13.55;;;5.30;;
70301;SDS011;57706;56.326;43.882;2023-09-18T01:05:44;17.20;;;6.15;;
70301;SDS011;57706;56.326;43.882;2023-09-18T01:08:10;14.32;;;6.05;;
70301;SDS011;57706;56.326;43.882;2023-09-18T01:10:39;12.55;;;5.88;;
70301;SDS011;57706;56.326;43.882;2023-09-18T01:13:27;14.98;;;5.95;;
70301;SDS011;57706;56.326;43.882;2023-09-18T01:16:24;18.08;;;6.13;;
70301;SDS011;57706;56.326;43.882;2023-09-18T01:18:50;14.77;;;6.22;;
70301;SDS011;57706;56.326;43.882;2023-09-18T01:21:18;15.80;;;5.13;;
70301;SDS011;57706;56.326;43.882;2023-09-18T01:23:46;13.52;;;5.18;;
70301;SDS011;57706;56.326;43.882;2023-09-18T01:26:13;12.63;;;4.95;;
70301;SDS011;57706;56.326;43.882;2023-09-18T01:28:39;8.55;;;4.00;;
70301;SDS011;57706;56.326;43.882;2023-09-18T01:31:05;9.13;;;4.75;;
70301;SDS011;57706;56.326;43.882;2023-09-18T01:33:32;11.13;;;4.90;;
70301;SDS011;57706;56.326;43.882;2023-09-18T01:35:59;9.27;;;4.65;;
70301;SDS011;57706;56.326;43.882;2023-09-18T01:38:26;8.43;;;4.95;;
70301;SDS011;57706;56.326;43.882;2023-09-18T01:40:53;7.30;;;4.53;;
70301;SDS011;57706;56.326;43.882;2023-09-18T01:43:20;14.95;;;5.10;;
70301;SDS011;57706;56.326;43.882;2023-09-18T01:45:46;11.35;;;5.05;;
70301;SDS011;57706;56.326;43.882;2023-09-18T01:48:13;9.85;;;5.13;;
70301;SDS011;57706;56.326;43.882;2023-09-18T01:50:39;10.68;;;5.70;;
70301;SDS011;57706;56.326;43.882;2023-09-18T01:53:06;14.07;;;5.00;;
70301;SDS011;57706;56.326;43.882;2023-09-18T01:55:32;13.27;;;4.93;;
70301;SDS011;57706;56.326;43.882;2023-09-18T01:57:58;11.63;;;5.43;;
70301;SDS011;57706;56.326;43.882;2023-09-18T02:00:25;12.02;;;5.28;;
70301;SDS011;57706;56.326;43.882;2023-09-18T02:02:53;13.02;;;5.15;;
70301;SDS011;57706;56.326;43.882;2023-09-18T02:05:19;11.40;;;5.28;;
70301;SDS011;57706;56.326;43.882;2023-09-18T02:07:45;8.90;;;5.13;;
70301;SDS011;57706;56.326;43.882;2023-09-18T02:10:11;11.07;;;4.80;;
70301;SDS011;57706;56.326;43.882;2023-09-18T02:12:40;8.90;;;5.28;;
70301;SDS011;57706;56.326;43.882;2023-09-18T02:15:06;8.65;;;4.30;;
70301;SDS011;57706;56.326;43.882;2023-09-18T02:17:35;8.70;;;5.07;;
70301;SDS011;57706;56.326;43.882;2023-09-18T02:20:02;10.95;;;4.88;;
70301;SDS011;57706;56.326;43.882;2023-09-18T02:22:31;15.68;;;5.35;;
70301;SDS011;57706;56.326;43.882;2023-09-18T02:24:58;9.40;;;5.00;;
70301;SDS011;57706;56.326;43.882;2023-09-18T02:27:24;10.80;;;5.03;;
70301;SDS011;57706;56.326;43.882;2023-09-18T02:29:50;11.57;;;5.53;;
70301;SDS011;57706;56.326;43.882;2023-09-18T02:32:19;8.52;;;5.07;;
70301;SDS011;57706;56.326;43.882;2023-09-18T02:34:45;11.40;;;5.50;;
70301;SDS011;57706;56.326;43.882;2023-09-18T02:37:10;10.43;;;5.18;;
70301;SDS011;57706;56.326;43.882;2023-09-18T02:39:36;13.82;;;5.57;;
70301;SDS011;57706;56.326;43.882;2023-09-18T02:42:02;9.90;;;5.28;;
70301;SDS011;57706;56.326;43.882;2023-09-18T02:44:28;10.65;;;5.28;;
70301;SDS011;57706;56.326;43.882;2023-09-18T02:46:54;8.77;;;4.95;;
70301;SDS011;57706;56.326;43.882;2023-09-18T02:49:20;9.25;;;4.97;;
70301;SDS011;57706;56.326;43.882;2023-09-18T02:51:46;7.85;;;5.10;;
70301;SDS011;57706;56.326;43.882;2023-09-18T02:54:12;15.63;;;5.57;;
70301;SDS011;57706;56.326;43.882;2023-09-18T02:56:38;12.95;;;6.10;;
70301;SDS011;57706;56.326;43.882;2023-09-18T02:59:04;14.27;;;5.85;;
70301;SDS011;57706;56.326;43.882;2023-09-18T03:01:30;8.93;;;5.30;;
70301;SDS011;57706;56.326;43.882;2023-09-18T03:03:56;9.38;;;5.68;;
70301;SDS011;57706;56.326;43.882;2023-09-18T03:06:22;12.90;;;6.20;;
70301;SDS011;57706;56.326;43.882;2023-09-18T03:08:48;15.07;;;5.68;;
70301;SDS011;57706;56.326;43.882;2023-09-18T03:11:15;10.95;;;5.70;;
70301;SDS011;57706;56.326;43.882;2023-09-18T03:13:43;15.52;;;5.88;;
70301;SDS011;57706;56.326;43.882;2023-09-18T03:16:13;11.95;;;5.80;;
70301;SDS011;57706;56.326;43.882;2023-09-18T03:18:41;11.40;;;5.47;;
70301;SDS011;57706;56.326;43.882;2023-09-18T03:21:06;15.73;;;8.13;;
70301;SDS011;57706;56.326;43.882;2023-09-18T03:23:32;16.27;;;7.40;;
70301;SDS011;57706;56.326;43.882;2023-09-18T03:25:59;13.82;;;7.15;;
70301;SDS011;57706;56.326;43.882;2023-09-18T03:28:26;11.57;;;6.68;;
70301;SDS011;57706;56.326;43.882;2023-09-18T03:30:52;10.23;;;6.43;;
70301;SDS011;57706;56.326;43.882;2023-09-18T03:33:21;10.02;;;5.53;;
70301;SDS011;57706;56.326;43.882;2023-09-18T03:35:47;15.77;;;6.32;;
70301;SDS011;57706;56.326;43.882;2023-09-18T03:38:17;13.00;;;6.03;;
70301;SDS011;57706;56.326;43.882;2023-09-18T03:40:44;9.20;;;5.88;;
70301;SDS011;57706;56.326;43.882;2023-09-18T03:43:10;10.23;;;5.60;;
70301;SDS011;57706;56.326;43.882;2023-09-18T03:45:37;10.25;;;5.75;;
70301;SDS011;57706;56.326;43.882;2023-09-18T03:48:07;10.40;;;5.50;;
70301;SDS011;57706;56.326;43.882;2023-09-18T03:50:32;8.63;;;5.35;;
70301;SDS011;57706;56.326;43.882;2023-09-18T03:52:58;12.57;;;5.75;;
70301;SDS011;57706;56.326;43.882;2023-09-18T03:55:24;10.45;;;6.43;;
70301;SDS011;57706;56.326;43.882;2023-09-18T03:57:51;10.57;;;6.07;;
70301;SDS011;57706;56.326;43.882;2023-09-18T04:00:18;12.32;;;5.55;;
70301;SDS011;57706;56.326;43.882;2023-09-18T04:02:44;10.50;;;5.93;;
70301;SDS011;57706;56.326;43.882;2023-09-18T04:05:09;11.52;;;5.80;;
70301;SDS011;57706;56.326;43.882;2023-09-18T04:07:35;10.75;;;5.90;;
70301;SDS011;57706;56.326;43.882;2023-09-18T04:10:02;11.38;;;6.00;;
70301;SDS011;57706;56.326;43.882;2023-09-18T04:12:32;11.73;;;6.15;;
70301;SDS011;57706;56.326;43.882;2023-09-18T04:14:58;11.02;;;6.25;;
70301;SDS011;57706;56.326;43.882;2023-09-18T04:17:24;13.82;;;6.55;;
70301;SDS011;57706;56.326;43.882;2023-09-18T04:19:51;14.80;;;6.30;;
70301;SDS011;57706;56.326;43.882;2023-09-18T04:22:17;13.18;;;6.30;;
70301;SDS011;57706;56.326;43.882;2023-09-18T04:24:43;13.65;;;5.50;;
70301;SDS011;57706;56.326;43.882;2023-09-18T04:27:10;13.68;;;5.50;;
70301;SDS011;57706;56.326;43.882;2023-09-18T04:29:36;19.13;;;6.78;;
70301;SDS011;57706;56.326;43.882;2023-09-18T04:32:03;15.27;;;6.20;;
70301;SDS011;57706;56.326;43.882;2023-09-18T04:34:30;8.88;;;4.60;;
70301;SDS011;57706;56.326;43.882;2023-09-18T04:36:56;10.35;;;6.03;;
70301;SDS011;57706;56.326;43.882;2023-09-18T04:39:23;9.52;;;5.93;;
70301;SDS011;57706;56.326;43.882;2023-09-18T04:41:49;11.35;;;5.88;;
70301;SDS011;57706;56.326;43.882;2023-09-18T04:44:15;8.73;;;5.47;;
70301;SDS011;57706;56.326;43.882;2023-09-18T04:46:43;10.77;;;6.22;;
70301;SDS011;57706;56.326;43.882;2023-09-18T04:49:10;11.93;;;6.22;;
70301;SDS011;57706;56.326;43.882;2023-09-18T04:51:37;11.15;;;5.97;;
70301;SDS011;57706;56.326;43.882;2023-09-18T04:54:07;11.80;;;6.20;;
70301;SDS011;57706;56.326;43.882;2023-09-18T04:56:34;13.38;;;6.38;;
70301;SDS011;57706;56.326;43.882;2023-09-18T04:59:00;16.67;;;6.45;;
70301;SDS011;57706;56.326;43.882;2023-09-18T05:01:28;16.05;;;6.55;;
70301;SDS011;57706;56.326;43.882;2023-09-18T05:03:55;11.95;;;6.20;;
70301;SDS011;57706;56.326;43.882;2023-09-18T05:06:21;12.05;;;6.68;;
70301;SDS011;57706;56.326;43.882;2023-09-18T05:08:47;14.07;;;6.50;;
70301;SDS011;57706;56.326;43.882;2023-09-18T05:11:13;14.98;;;6.47;;
70301;SDS011;57706;56.326;43.882;2023-09-18T05:13:38;14.55;;;6.65;;
70301;SDS011;57706;56.326;43.882;2023-09-18T05:16:04;13.10;;;6.72;;
70301;SDS011;57706;56.326;43.882;2023-09-18T05:18:31;12.98;;;6.70;;
70301;SDS011;57706;56.326;43.882;2023-09-18T05:20:57;15.35;;;6.93;;
70301;SDS011;57706;56.326;43.882;2023-09-18T05:23:23;18.60;;;7.53;;
70301;SDS011;57706;56.326;43.882;2023-09-18T05:25:49;16.50;;;7.28;;
70301;SDS011;57706;56.326;43.882;2023-09-18T05:28:15;15.48;;;7.60;;
70301;SDS011;57706;56.326;43.882;2023-09-18T05:30:41;22.08;;;7.38;;
70301;SDS011;57706;56.326;43.882;2023-09-18T05:33:07;19.20;;;7.88;;
70301;SDS011;57706;56.326;43.882;2023-09-18T05:35:36;19.70;;;7.43;;
70301;SDS011;57706;56.326;43.882;2023-09-18T05:38:05;18.45;;;7.03;;
70301;SDS011;57706;56.326;43.882;2023-09-18T05:40:32;25.70;;;7.32;;
70301;SDS011;57706;56.326;43.882;2023-09-18T05:42:58;25.63;;;7.43;;
70301;SDS011;57706;56.326;43.882;2023-09-18T05:45:25;25.52;;;8.35;;
70301;SDS011;57706;56.326;43.882;2023-09-18T05:47:53;25.35;;;7.28;;
70301;SDS011;57706;56.326;43.882;2023-09-18T05:50:19;27.92;;;9.05;;
70301;SDS011;57706;56.326;43.882;2023-09-18T05:52:46;22.33;;;10.73;;
70301;SDS011;57706;56.326;43.882;2023-09-18T05:55:14;20.92;;;8.65;;
70301;SDS011;57706;56.326;43.882;2023-09-18T05:57:41;20.90;;;7.80;;
70301;SDS011;57706;56.326;43.882;2023-09-18T06:00:07;19.55;;;8.25;;
70301;SDS011;57706;56.326;43.882;2023-09-18T06:02:40;20.27;;;8.88;;
70301;SDS011;57706;56.326;43.882;2023-09-18T06:05:07;26.15;;;9.50;;
70301;SDS011;57706;56.326;43.882;2023-09-18T06:07:37;26.48;;;9.20;;
70301;SDS011;57706;56.326;43.882;2023-09-18T06:10:03;18.27;;;8.00;;
70301;SDS011;57706;56.326;43.882;2023-09-18T06:12:30;31.58;;;8.15;;
70301;SDS011;57706;56.326;43.882;2023-09-18T06:14:56;24.90;;;7.93;;
70301;SDS011;57706;56.326;43.882;2023-09-18T06:17:22;18.65;;;7.57;;
70301;SDS011;57706;56.326;43.882;2023-09-18T06:19:48;18.73;;;7.53;;
70301;SDS011;57706;56.326;43.882;2023-09-18T06:22:14;16.80;;;8.07;;
70301;SDS011;57706;56.326;43.882;2023-09-18T06:24:40;19.02;;;8.32;;
70301;SDS011;57706;56.326;43.882;2023-09-18T06:27:06;17.25;;;7.90;;
70301;SDS011;57706;56.326;43.882;2023-09-18T06:29:32;21.15;;;7.75;;
70301;SDS011;57706;56.326;43.882;2023-09-18T06:31:59;14.13;;;7.78;;
70301;SDS011;57706;56.326;43.882;2023-09-18T06:34:25;18.95;;;7.28;;
70301;SDS011;57706;56.326;43.882;2023-09-18T06:36:51;18.00;;;7.43;;
70301;SDS011;57706;56.326;43.882;2023-09-18T06:39:17;20.90;;;6.85;;
70301;SDS011;57706;56.326;43.882;2023-09-18T06:41:45;16.42;;;6.78;;
70301;SDS011;57706;56.326;43.882;2023-09-18T06:44:12;21.25;;;7.15;;
70301;SDS011;57706;56.326;43.882;2023-09-18T06:46:38;13.90;;;6.82;;
70301;SDS011;57706;56.326;43.882;2023-09-18T06:49:05;25.38;;;7.30;;
70301;SDS011;57706;56.326;43.882;2023-09-18T06:51:31;15.25;;;7.43;;
70301;SDS011;57706;56.326;43.882;2023-09-18T06:53:57;16.73;;;6.65;;
70301;SDS011;57706;56.326;43.882;2023-09-18T06:56:24;13.02;;;6.70;;
70301;SDS011;57706;56.326;43.882;2023-09-18T06:58:50;27.00;;;14.05;;
70301;SDS011;57706;56.326;43.882;2023-09-18T07:01:21;15.13;;;7.22;;
70301;SDS011;57706;56.326;43.882;2023-09-18T07:03:47;18.15;;;6.22;;
70301;SDS011;57706;56.326;43.882;2023-09-18T07:06:14;13.38;;;6.22;;
70301;SDS011;57706;56.326;43.882;2023-09-18T07:08:47;15.88;;;5.90;;
70301;SDS011;57706;56.326;43.882;2023-09-18T07:11:16;17.42;;;6.82;;
70301;SDS011;57706;56.326;43.882;2023-09-18T07:13:42;17.05;;;6.32;;
70301;SDS011;57706;56.326;43.882;2023-09-18T07:16:11;10.80;;;5.78;;
70301;SDS011;57706;56.326;43.882;2023-09-18T07:18:37;17.60;;;6.63;;
70301;SDS011;57706;56.326;43.882;2023-09-18T07:21:03;23.38;;;7.15;;
70301;SDS011;57706;56.326;43.882;2023-09-18T07:23:29;13.18;;;6.43;;
70301;SDS011;57706;56.326;43.882;2023-09-18T07:25:54;21.45;;;6.55;;
70301;SDS011;57706;56.326;43.882;2023-09-18T07:28:20;20.10;;;6.40;;
70301;SDS011;57706;56.326;43.882;2023-09-18T07:30:46;15.02;;;5.72;;
70301;SDS011;57706;56.326;43.882;2023-09-18T07:33:13;11.40;;;6.53;;
70301;SDS011;57706;56.326;43.882;2023-09-18T07:35:48;15.00;;;7.40;;
70301;SDS011;57706;56.326;43.882;2023-09-18T07:38:17;13.85;;;7.00;;
70301;SDS011;57706;56.326;43.882;2023-09-18T07:40:45;16.75;;;6.72;;
70301;SDS011;57706;56.326;43.882;2023-09-18T07:43:13;20.80;;;6.38;;
70301;SDS011;57706;56.326;43.882;2023-09-18T07:45:39;11.27;;;6.15;;
70301;SDS011;57706;56.326;43.882;2023-09-18T07:48:06;19.48;;;7.00;;
70301;SDS011;57706;56.326;43.882;2023-09-18T07:50:33;11.95;;;5.93;;
70301;SDS011;57706;56.326;43.882;2023-09-18T07:53:00;14.57;;;6.80;;
70301;SDS011;57706;56.326;43.882;2023-09-18T07:55:26;14.10;;;6.45;;
70301;SDS011;57706;56.326;43.882;2023-09-18T07:57:52;14.13;;;6.15;;
70301;SDS011;57706;56.326;43.882;2023-09-18T08:00:19;12.70;;;6.40;;
70301;SDS011;57706;56.326;43.882;2023-09-18T08:02:48;12.68;;;6.28;;
70301;SDS011;57706;56.326;43.882;2023-09-18T08:05:16;12.48;;;5.63;;
70301;SDS011;57706;56.326;43.882;2023-09-18T08:07:43;16.77;;;6.15;;
70301;SDS011;57706;56.326;43.882;2023-09-18T08:10:09;16.20;;;6.43;;
70301;SDS011;57706;56.326;43.882;2023-09-18T08:12:38;10.73;;;4.82;;
70301;SDS011;57706;56.326;43.882;2023-09-18T08:15:04;10.18;;;4.45;;
70301;SDS011;57706;56.326;43.882;2023-09-18T08:17:32;10.30;;;5.10;;
70301;SDS011;57706;56.326;43.882;2023-09-18T08:19:59;9.43;;;3.92;;
70301;SDS011;57706;56.326;43.882;2023-09-18T08:22:25;10.88;;;3.83;;
70301;SDS011;57706;56.326;43.882;2023-09-18T08:24:51;7.60;;;3.92;;
70301;SDS011;57706;56.326;43.882;2023-09-18T08:27:18;12.05;;;4.43;;
70301;SDS011;57706;56.326;43.882;2023-09-18T08:29:44;12.50;;;3.90;;
70301;SDS011;57706;56.326;43.882;2023-09-18T08:32:11;8.00;;;4.45;;
70301;SDS011;57706;56.326;43.882;2023-09-18T08:34:37;7.45;;;4.13;;
70301;SDS011;57706;56.326;43.882;2023-09-18T08:37:03;6.25;;;4.03;;
70301;SDS011;57706;56.326;43.882;2023-09-18T08:39:29;10.27;;;4.57;;
70301;SDS011;57706;56.326;43.882;2023-09-18T08:41:58;10.20;;;4.43;;
70301;SDS011;57706;56.326;43.882;2023-09-18T08:46:53;11.55;;;4.85;;
70301;SDS011;57706;56.326;43.882;2023-09-18T08:49:21;8.32;;;4.22;;
70301;SDS011;57706;56.326;43.882;2023-09-18T08:51:50;8.30;;;4.32;;
70301;SDS011;57706;56.326;43.882;2023-09-18T08:54:19;7.38;;;4.07;;
70301;SDS011;57706;56.326;43.882;2023-09-18T08:56:46;13.48;;;4.43;;
70301;SDS011;57706;56.326;43.882;2023-09-18T08:59:12;5.28;;;3.70;;
70301;SDS011;57706;56.326;43.882;2023-09-18T09:01:39;6.68;;;3.85;;
70301;SDS011;57706;56.326;43.882;2023-09-18T09:04:05;9.80;;;4.18;;
70301;SDS011;57706;56.326;43.882;2023-09-18T09:06:31;13.60;;;4.20;;
70301;SDS011;57706;56.326;43.882;2023-09-18T09:08:57;14.00;;;4.28;;
70301;SDS011;57706;56.326;43.882;2023-09-18T09:11:23;13.90;;;4.13;;
70301;SDS011;57706;56.326;43.882;2023-09-18T09:13:54;7.55;;;4.18;;
70301;SDS011;57706;56.326;43.882;2023-09-18T09:16:38;6.95;;;3.97;;
70301;SDS011;57706;56.326;43.882;2023-09-18T09:19:05;6.15;;;4.05;;
70301;SDS011;57706;56.326;43.882;2023-09-18T09:21:41;10.10;;;4.38;;
70301;SDS011;57706;56.326;43.882;2023-09-18T09:24:10;7.68;;;4.15;;
70301;SDS011;57706;56.326;43.882;2023-09-18T09:26:39;13.00;;;3.85;;
70301;SDS011;57706;56.326;43.882;2023-09-18T09:29:24;10.05;;;3.72;;
70301;SDS011;57706;56.326;43.882;2023-09-18T09:31:50;9.55;;;4.40;;
70301;SDS011;57706;56.326;43.882;2023-09-18T09:34:25;9.23;;;4.20;;
70301;SDS011;57706;56.326;43.882;2023-09-18T09:36:53;7.93;;;4.10;;
70301;SDS011;57706;56.326;43.882;2023-09-18T09:39:20;6.35;;;4.65;;
70301;SDS011;57706;56.326;43.882;2023-09-18T09:41:47;7.75;;;4.03;;
70301;SDS011;57706;56.326;43.882;2023-09-18T09:44:14;8.25;;;3.78;;
70301;SDS011;57706;56.326;43.882;2023-09-18T09:46:47;6.18;;;3.55;;
70301;SDS011;57706;56.326;43.882;2023-09-18T09:49:13;6.10;;;3.78;;
70301;SDS011;57706;56.326;43.882;2023-09-18T09:51:41;7.70;;;4.07;;
70301;SDS011;57706;56.326;43.882;2023-09-18T09:54:07;5.72;;;4.03;;
70301;SDS011;57706;56.326;43.882;2023-09-18T09:59:17;5.40;;;4.10;;
70301;SDS011;57706;56.326;43.882;2023-09-18T10:01:47;8.13;;;4.13;;
70301;SDS011;57706;56.326;43.882;2023-09-18T10:04:16;5.85;;;3.70;;
70301;SDS011;57706;56.326;43.882;2023-09-18T10:06:44;8.18;;;4.25;;
70301;SDS011;57706;56.326;43.882;2023-09-18T10:09:16;9.98;;;3.80;;
70301;SDS011;57706;56.326;43.882;2023-09-18T10:11:45;7.80;;;3.97;;
70301;SDS011;57706;56.326;43.882;2023-09-18T10:14:16;7.63;;;4.82;;
70301;SDS011;57706;56.326;43.882;2023-09-18T10:16:47;6.32;;;4.03;;
70301;SDS011;57706;56.326;43.882;2023-09-18T10:22:12;11.63;;;4.20;;
70301;SDS011;57706;56.326;43.882;2023-09-18T10:24:54;10.60;;;4.22;;
70301;SDS011;57706;56.326;43.882;2023-09-18T10:27:26;10.75;;;4.10;;
70301;SDS011;57706;56.326;43.882;2023-09-18T10:29:53;7.03;;;4.28;;
70301;SDS011;57706;56.326;43.882;2023-09-18T10:32:21;10.60;;;4.35;;
70301;SDS011;57706;56.326;43.882;2023-09-18T10:34:48;8.63;;;4.40;;
70301;SDS011;57706;56.326;43.882;2023-09-18T10:37:14;9.27;;;4.15;;
70301;SDS011;57706;56.326;43.882;2023-09-18T10:39:41;8.65;;;4.10;;
70301;SDS011;57706;56.326;43.882;2023-09-18T10:42:10;6.90;;;4.03;;
70301;SDS011;57706;56.326;43.882;2023-09-18T10:44:39;7.40;;;4.35;;
70301;SDS011;57706;56.326;43.882;2023-09-18T10:47:06;7.43;;;4.35;;
70301;SDS011;57706;56.326;43.882;2023-09-18T10:49:34;7.88;;;4.60;;
70301;SDS011;57706;56.326;43.882;2023-09-18T10:52:00;7.63;;;4.72;;
70301;SDS011;57706;56.326;43.882;2023-09-18T10:54:27;9.68;;;4.25;;
70301;SDS011;57706;56.326;43.882;2023-09-18T10:56:55;9.63;;;4.55;;
70301;SDS011;57706;56.326;43.882;2023-09-18T10:59:22;12.07;;;4.78;;
70301;SDS011;57706;56.326;43.882;2023-09-18T11:01:48;7.15;;;4.25;;
70301;SDS011;57706;56.326;43.882;2023-09-18T11:04:17;11.15;;;5.05;;
70301;SDS011;57706;56.326;43.882;2023-09-18T11:09:21;12.20;;;4.82;;
70301;SDS011;57706;56.326;43.882;2023-09-18T11:14:40;7.50;;;4.38;;
70301;SDS011;57706;56.326;43.882;2023-09-18T11:17:27;9.57;;;4.78;;
70301;SDS011;57706;56.326;43.882;2023-09-18T11:25:42;8.27;;;3.97;;
70301;SDS011;57706;56.326;43.882;2023-09-18T11:28:13;9.55;;;4.00;;
70301;SDS011;57706;56.326;43.882;2023-09-18T11:30:51;5.15;;;4.15;;
70301;SDS011;57706;56.326;43.882;2023-09-18T11:36:39;21.92;;;4.55;;
70301;SDS011;57706;56.326;43.882;2023-09-18T11:38:53;8.30;;;4.05;;
70301;SDS011;57706;56.326;43.882;2023-09-18T11:41:22;8.68;;;3.80;;
70301;SDS011;57706;56.326;43.882;2023-09-18T11:43:52;4.70;;;3.55;;
70301;SDS011;57706;56.326;43.882;2023-09-18T11:46:45;8.00;;;3.92;;
70301;SDS011;57706;56.326;43.882;2023-09-18T11:49:21;5.40;;;3.67;;
70301;SDS011;57706;56.326;43.882;2023-09-18T11:51:50;6.03;;;4.03;;
70301;SDS011;57706;56.326;43.882;2023-09-18T11:54:16;6.50;;;3.65;;
70301;SDS011;57706;56.326;43.882;2023-09-18T11:56:43;5.53;;;3.78;;
70301;SDS011;57706;56.326;43.882;2023-09-18T11:59:10;10.75;;;4.00;;
70301;SDS011;57706;56.326;43.882;2023-09-18T12:01:36;8.63;;;3.70;;
70301;SDS011;57706;56.326;43.882;2023-09-18T12:04:05;6.82;;;3.33;;
70301;SDS011;57706;56.326;43.882;2023-09-18T12:06:35;10.70;;;3.40;;
70301;SDS011;57706;56.326;43.882;2023-09-18T12:09:03;8.93;;;3.75;;
70301;SDS011;57706;56.326;43.882;2023-09-18T12:11:32;7.35;;;3.75;;
70301;SDS011;57706;56.326;43.882;2023-09-18T12:14:07;6.93;;;3.53;;
70301;SDS011;57706;56.326;43.882;2023-09-18T12:16:39;7.20;;;3.03;;
70301;SDS011;57706;56.326;43.882;2023-09-18T12:19:05;5.43;;;3.80;;
70301;SDS011;57706;56.326;43.882;2023-09-18T12:21:32;6.78;;;3.22;;
70301;SDS011;57706;56.326;43.882;2023-09-18T12:24:05;6.05;;;3.53;;
70301;SDS011;57706;56.326;43.882;2023-09-18T12:26:31;6.05;;;3.60;;
70301;SDS011;57706;56.326;43.882;2023-09-18T12:28:58;6.55;;;3.13;;
70301;SDS011;57706;56.326;43.882;2023-09-18T12:31:25;7.45;;;4.05;;
70301;SDS011;57706;56.326;43.882;2023-09-18T12:33:51;8.40;;;3.78;;
70301;SDS011;57706;56.326;43.882;2023-09-18T12:36:20;9.20;;;3.20;;
70301;SDS011;57706;56.326;43.882;2023-09-18T12:38:56;4.57;;;3.50;;
70301;SDS011;57706;56.326;43.882;2023-09-18T12:41:24;7.50;;;3.50;;
70301;SDS011;57706;56.326;43.882;2023-09-18T12:43:50;8.27;;;3.42;;
70301;SDS011;57706;56.326;43.882;2023-09-18T12:46:17;5.72;;;3.42;;
70301;SDS011;57706;56.326;43.882;2023-09-18T12:48:45;4.40;;;3.10;;
70301;SDS011;57706;56.326;43.882;2023-09-18T12:51:12;7.28;;;3.85;;
70301;SDS011;57706;56.326;43.882;2023-09-18T12:53:39;6.78;;;3.25;;
70301;SDS011;57706;56.326;43.882;2023-09-18T12:56:14;8.60;;;3.00;;
70301;SDS011;57706;56.326;43.882;2023-09-18T12:58:40;5.43;;;3.30;;
70301;SDS011;57706;56.326;43.882;2023-09-18T13:01:08;6.30;;;2.88;;
70301;SDS011;57706;56.326;43.882;2023-09-18T13:03:42;10.70;;;3.10;;
70301;SDS011;57706;56.326;43.882;2023-09-18T13:06:09;5.38;;;2.30;;
70301;SDS011;57706;56.326;43.882;2023-09-18T13:08:37;5.53;;;2.70;;
70301;SDS011;57706;56.326;43.882;2023-09-18T13:11:04;8.90;;;2.83;;
70301;SDS011;57706;56.326;43.882;2023-09-18T13:13:32;10.20;;;2.70;;
70301;SDS011;57706;56.326;43.882;2023-09-18T13:15:58;6.20;;;2.80;;
70301;SDS011;57706;56.326;43.882;2023-09-18T13:18:26;7.50;;;2.90;;
70301;SDS011;57706;56.326;43.882;2023-09-18T13:20:53;6.65;;;2.60;;
70301;SDS011;57706;56.326;43.882;2023-09-18T13:23:19;14.35;;;3.22;;
70301;SDS011;57706;56.326;43.882;2023-09-18T13:25:45;6.25;;;2.60;;
70301;SDS011;57706;56.326;43.882;2023-09-18T13:28:13;2.70;;;2.30;;
70301;SDS011;57706;56.326;43.882;2023-09-18T13:30:40;6.88;;;2.70;;
70301;SDS011;57706;56.326;43.882;2023-09-18T13:33:08;6.32;;;3.55;;
70301;SDS011;57706;56.326;43.882;2023-09-18T13:35:36;7.18;;;2.90;;
70301;SDS011;57706;56.326;43.882;2023-09-18T13:38:06;4.78;;;2.97;;
70301;SDS011;57706;56.326;43.882;2023-09-18T13:40:36;3.80;;;2.95;;
70301;SDS011;57706;56.326;43.882;2023-09-18T13:43:03;3.95;;;2.40;;
70301;SDS011;57706;56.326;43.882;2023-09-18T13:45:33;7.30;;;2.90;;
70301;SDS011;57706;56.326;43.882;2023-09-18T13:48:04;7.13;;;2.88;;
70301;SDS011;57706;56.326;43.882;2023-09-18T13:50:33;12.50;;;2.95;;
70301;SDS011;57706;56.326;43.882;2023-09-18T13:53:00;8.32;;;3.25;;
70301;SDS011;57706;56.326;43.882;2023-09-18T13:55:30;8.25;;;3.10;;
70301;SDS011;57706;56.326;43.882;2023-09-18T13:57:56;6.45;;;2.95;;
70301;SDS011;57706;56.326;43.882;2023-09-18T14:00:22;14.82;;;7.25;;
70301;SDS011;57706;56.326;43.882;2023-09-18T14:02:48;20.67;;;9.88;;
70301;SDS011;57706;56.326;43.882;2023-09-18T14:05:14;8.75;;;3.13;;
70301;SDS011;57706;56.326;43.882;2023-09-18T14:07:39;10.45;;;3.40;;
70301;SDS011;57706;56.326;43.882;2023-09-18T14:10:10;5.75;;;3.35;;
70301;SDS011;57706;56.326;43.882;2023-09-18T14:12:37;11.20;;;3.67;;
70301;SDS011;57706;56.326;43.882;2023-09-18T14:15:05;5.80;;;3.63;;
70301;SDS011;57706;56.326;43.882;2023-09-18T14:17:32;8.20;;;4.03;;
70301;SDS011;57706;56.326;43.882;2023-09-18T14:19:59;6.25;;;4.10;;
70301;SDS011;57706;56.326;43.882;2023-09-18T14:22:25;5.15;;;3.53;;
70301;SDS011;57706;56.326;43.882;2023-09-18T14:24:51;5.20;;;3.72;;
70301;SDS011;57706;56.326;43.882;2023-09-18T14:27:17;7.65;;;4.10;;
70301;SDS011;57706;56.326;43.882;2023-09-18T14:29:43;8.45;;;4.05;;
70301;SDS011;57706;56.326;43.882;2023-09-18T14:32:10;14.55;;;4.20;;
70301;SDS011;57706;56.326;43.882;2023-09-18T14:34:37;15.30;;;4.13;;
70301;SDS011;57706;56.326;43.882;2023-09-18T14:37:04;6.68;;;4.05;;
70301;SDS011;57706;56.326;43.882;2023-09-18T14:39:30;9.13;;;3.70;;
70301;SDS011;57706;56.326;43.882;2023-09-18T14:41:57;8.60;;;4.45;;
70301;SDS011;57706;56.326;43.882;2023-09-18T14:44:22;9.88;;;4.50;;
70301;SDS011;57706;56.326;43.882;2023-09-18T14:46:48;6.38;;;3.50;;
70301;SDS011;57706;56.326;43.882;2023-09-18T14:49:15;7.60;;;3.28;;
70301;SDS011;57706;56.326;43.882;2023-09-18T14:51:41;6.45;;;3.90;;